createdAt,value
2023-02-13T05:11:23.602Z,6.40
2023-02-13T06:01:24.159Z,5.50
2023-02-13T06:03:51.085Z,5.20
2023-02-13T06:06:18.182Z,5.00
2023-02-13T06:08:44.817Z,4.70
2023-02-13T06:11:11.727Z,4.50
2023-02-13T06:13:40.682Z,4.30
2023-02-13T06:16:11.610Z,4.10
2023-02-13T06:18:39.219Z,3.90
2023-02-13T06:21:06.839Z,3.80
2023-02-13T06:23:33.540Z,3.60
2023-02-13T06:26:08.188Z,3.40
2023-02-13T06:28:35.299Z,3.20
2023-02-13T06:31:02.363Z,3.00
2023-02-13T06:33:29.596Z,2.90
2023-02-13T06:35:56.201Z,2.80
2023-02-13T06:38:22.926Z,2.80
2023-02-13T06:40:49.703Z,2.80
2023-02-13T06:43:17.698Z,2.80
2023-02-13T06:45:46.778Z,2.70
2023-02-13T06:48:13.929Z,2.70
2023-02-13T06:50:40.675Z,2.70
2023-02-13T06:53:07.251Z,2.70
2023-02-13T07:03:02.936Z,2.20
2023-02-13T07:05:29.693Z,2.40
2023-02-13T07:07:56.660Z,2.30
2023-02-13T07:10:23.809Z,2.30
2023-02-13T07:13:03.538Z,2.30
2023-02-13T07:15:32.720Z,2.30
2023-02-13T07:17:59.705Z,2.20
2023-02-13T07:20:27.129Z,2.20
2023-02-13T07:22:57.350Z,2.20
2023-02-13T07:25:23.981Z,2.20
2023-02-13T07:27:50.592Z,2.20
2023-02-13T07:30:17.343Z,2.20
2023-02-13T07:32:44.010Z,2.20
2023-02-13T07:35:10.645Z,2.10
2023-02-13T07:37:37.243Z,2.20
2023-02-13T07:50:01.599Z,2.40
2023-02-13T07:52:28.173Z,2.60
2023-02-13T07:54:54.816Z,2.50
2023-02-13T07:57:21.405Z,2.60
2023-02-13T07:59:48.003Z,2.70
2023-02-13T08:02:15.815Z,2.80
2023-02-13T08:04:46.664Z,2.90
2023-02-13T08:07:17.707Z,3.10
2023-02-13T08:10:03.877Z,3.30
2023-02-13T08:12:32.455Z,3.50
2023-02-13T08:14:59.162Z,3.80
2023-02-13T08:17:25.890Z,4.30
2023-02-13T08:19:52.492Z,5.10
2023-02-13T08:22:19.263Z,6.20
2023-02-13T08:24:46.332Z,7.20
2023-02-13T08:27:14.562Z,8.20
2023-02-13T08:29:41.803Z,9.00
2023-02-13T08:32:09.142Z,9.50
